sensor_id;sensor_type;location;lat;lon;timestamp;P1;durP1;ratioP1;P2;durP2;ratioP2
27696;SDS011;15105;56.514;21.002;2022-08-14T00:02:12;7.45;;;2.90;;
27696;SDS011;15105;56.514;21.002;2022-08-14T00:04:39;14.75;;;3.22;;
27696;SDS011;15105;56.514;21.002;2022-08-14T00:07:10;19.38;;;3.70;;
27696;SDS011;15105;56.514;21.002;2022-08-14T00:09:40;13.38;;;3.70;;
27696;SDS011;15105;56.514;21.002;2022-08-14T00:12:27;11.13;;;3.38;;
27696;SDS011;15105;56.514;21.002;2022-08-14T00:15:14;15.40;;;3.80;;
27696;SDS011;15105;56.514;21.002;2022-08-14T00:17:42;18.45;;;3.22;;
27696;SDS011;15105;56.514;21.002;2022-08-14T00:20:20;18.00;;;3.70;;
27696;SDS011;15105;56.514;21.002;2022-08-14T00:23:02;15.27;;;3.75;;
27696;SDS011;15105;56.514;21.002;2022-08-14T00:25:43;12.60;;;3.05;;
27696;SDS011;15105;56.514;21.002;2022-08-14T00:28:30;14.35;;;4.03;;
27696;SDS011;15105;56.514;21.002;2022-08-14T00:31:00;22.60;;;3.63;;
27696;SDS011;15105;56.514;21.002;2022-08-14T00:33:29;13.57;;;3.70;;
27696;SDS011;15105;56.514;21.002;2022-08-14T00:36:16;12.85;;;3.60;;
27696;SDS011;15105;56.514;21.002;2022-08-14T00:39:04;11.63;;;3.45;;
27696;SDS011;15105;56.514;21.002;2022-08-14T00:41:33;12.50;;;3.47;;
27696;SDS011;15105;56.514;21.002;2022-08-14T00:44:00;12.98;;;3.80;;
27696;SDS011;15105;56.514;21.002;2022-08-14T00:46:27;13.07;;;3.22;;
27696;SDS011;15105;56.514;21.002;2022-08-14T00:48:58;13.50;;;3.35;;
27696;SDS011;15105;56.514;21.002;2022-08-14T00:51:27;10.98;;;3.42;;
27696;SDS011;15105;56.514;21.002;2022-08-14T00:54:04;10.00;;;3.22;;
27696;SDS011;15105;56.514;21.002;2022-08-14T00:56:48;11.65;;;2.90;;
27696;SDS011;15105;56.514;21.002;2022-08-14T00:59:21;11.43;;;3.15;;
27696;SDS011;15105;56.514;21.002;2022-08-14T01:01:54;10.23;;;3.40;;
27696;SDS011;15105;56.514;21.002;2022-08-14T01:04:25;11.98;;;3.15;;
27696;SDS011;15105;56.514;21.002;2022-08-14T01:07:15;11.50;;;3.33;;
27696;SDS011;15105;56.514;21.002;2022-08-14T01:09:47;15.25;;;3.15;;
27696;SDS011;15105;56.514;21.002;2022-08-14T01:12:19;12.25;;;3.38;;
27696;SDS011;15105;56.514;21.002;2022-08-14T01:14:56;10.40;;;2.88;;
27696;SDS011;15105;56.514;21.002;2022-08-14T01:17:24;12.55;;;3.28;;
27696;SDS011;15105;56.514;21.002;2022-08-14T01:20:15;11.52;;;3.10;;
27696;SDS011;15105;56.514;21.002;2022-08-14T01:23:10;8.73;;;2.88;;
27696;SDS011;15105;56.514;21.002;2022-08-14T01:25:44;13.35;;;2.80;;
27696;SDS011;15105;56.514;21.002;2022-08-14T01:28:13;10.52;;;3.05;;
27696;SDS011;15105;56.514;21.002;2022-08-14T01:31:00;6.60;;;2.40;;
27696;SDS011;15105;56.514;21.002;2022-08-14T01:33:31;9.70;;;3.00;;
27696;SDS011;15105;56.514;21.002;2022-08-14T01:36:19;10.88;;;2.80;;
27696;SDS011;15105;56.514;21.002;2022-08-14T01:38:48;12.77;;;2.92;;
27696;SDS011;15105;56.514;21.002;2022-08-14T01:41:20;17.55;;;2.60;;
27696;SDS011;15105;56.514;21.002;2022-08-14T01:43:58;14.38;;;3.40;;
27696;SDS011;15105;56.514;21.002;2022-08-14T01:46:28;10.25;;;2.67;;
27696;SDS011;15105;56.514;21.002;2022-08-14T01:49:03;7.87;;;2.73;;
27696;SDS011;15105;56.514;21.002;2022-08-14T01:51:43;11.50;;;3.10;;
27696;SDS011;15105;56.514;21.002;2022-08-14T01:54:15;12.73;;;3.17;;
27696;SDS011;15105;56.514;21.002;2022-08-14T01:56:51;12.30;;;3.03;;
27696;SDS011;15105;56.514;21.002;2022-08-14T02:02:04;10.55;;;3.20;;
27696;SDS011;15105;56.514;21.002;2022-08-14T02:04:46;5.28;;;2.55;;
27696;SDS011;15105;56.514;21.002;2022-08-14T02:07:22;8.13;;;3.38;;
27696;SDS011;15105;56.514;21.002;2022-08-14T02:10:10;16.33;;;2.80;;
27696;SDS011;15105;56.514;21.002;2022-08-14T02:12:41;14.70;;;3.15;;
27696;SDS011;15105;56.514;21.002;2022-08-14T02:15:22;11.70;;;2.90;;
27696;SDS011;15105;56.514;21.002;2022-08-14T02:17:51;14.38;;;2.78;;
27696;SDS011;15105;56.514;21.002;2022-08-14T02:20:18;5.88;;;2.65;;
27696;SDS011;15105;56.514;21.002;2022-08-14T02:22:49;8.75;;;2.95;;
27696;SDS011;15105;56.514;21.002;2022-08-14T02:25:20;15.80;;;3.05;;
27696;SDS011;15105;56.514;21.002;2022-08-14T02:27:48;10.70;;;2.90;;
27696;SDS011;15105;56.514;21.002;2022-08-14T02:30:35;10.88;;;2.95;;
27696;SDS011;15105;56.514;21.002;2022-08-14T02:33:03;10.23;;;2.58;;
27696;SDS011;15105;56.514;21.002;2022-08-14T02:35:32;10.10;;;3.28;;
27696;SDS011;15105;56.514;21.002;2022-08-14T02:38:06;9.73;;;3.13;;
27696;SDS011;15105;56.514;21.002;2022-08-14T02:40:37;7.78;;;2.72;;
27696;SDS011;15105;56.514;21.002;2022-08-14T02:43:07;10.18;;;2.22;;
27696;SDS011;15105;56.514;21.002;2022-08-14T02:45:35;10.45;;;2.55;;
27696;SDS011;15105;56.514;21.002;2022-08-14T02:48:09;5.38;;;2.42;;
27696;SDS011;15105;56.514;21.002;2022-08-14T02:50:58;6.75;;;2.47;;
27696;SDS011;15105;56.514;21.002;2022-08-14T02:53:28;6.50;;;2.83;;
27696;SDS011;15105;56.514;21.002;2022-08-14T02:55:57;10.93;;;2.47;;
27696;SDS011;15105;56.514;21.002;2022-08-14T02:58:46;9.20;;;2.50;;
27696;SDS011;15105;56.514;21.002;2022-08-14T03:01:15;8.27;;;2.42;;
27696;SDS011;15105;56.514;21.002;2022-08-14T03:03:45;10.50;;;2.97;;
27696;SDS011;15105;56.514;21.002;2022-08-14T03:06:14;5.75;;;2.38;;
27696;SDS011;15105;56.514;21.002;2022-08-14T03:09:01;6.13;;;2.70;;
27696;SDS011;15105;56.514;21.002;2022-08-14T03:11:29;6.25;;;2.20;;
27696;SDS011;15105;56.514;21.002;2022-08-14T03:14:00;10.18;;;2.88;;
27696;SDS011;15105;56.514;21.002;2022-08-14T03:16:27;7.63;;;2.60;;
27696;SDS011;15105;56.514;21.002;2022-08-14T03:19:04;5.30;;;2.70;;
27696;SDS011;15105;56.514;21.002;2022-08-14T03:21:33;10.25;;;2.53;;
27696;SDS011;15105;56.514;21.002;2022-08-14T03:24:02;10.38;;;2.60;;
27696;SDS011;15105;56.514;21.002;2022-08-14T03:26:48;6.63;;;2.90;;
27696;SDS011;15105;56.514;21.002;2022-08-14T03:29:23;9.87;;;2.53;;
27696;SDS011;15105;56.514;21.002;2022-08-14T03:31:51;6.72;;;2.40;;
27696;SDS011;15105;56.514;21.002;2022-08-14T03:34:19;5.03;;;2.17;;
27696;SDS011;15105;56.514;21.002;2022-08-14T03:37:10;12.13;;;2.30;;
27696;SDS011;15105;56.514;21.002;2022-08-14T03:39:58;8.90;;;2.40;;
27696;SDS011;15105;56.514;21.002;2022-08-14T03:42:25;11.27;;;2.30;;
27696;SDS011;15105;56.514;21.002;2022-08-14T03:45:02;10.60;;;2.40;;
27696;SDS011;15105;56.514;21.002;2022-08-14T03:47:56;7.50;;;2.30;;
27696;SDS011;15105;56.514;21.002;2022-08-14T03:50:27;18.45;;;2.40;;
27696;SDS011;15105;56.514;21.002;2022-08-14T03:52:58;9.25;;;2.40;;
27696;SDS011;15105;56.514;21.002;2022-08-14T03:55:27;7.55;;;2.45;;
27696;SDS011;15105;56.514;21.002;2022-08-14T03:57:55;9.48;;;2.45;;
27696;SDS011;15105;56.514;21.002;2022-08-14T04:00:26;7.20;;;2.30;;
27696;SDS011;15105;56.514;21.002;2022-08-14T04:03:11;9.20;;;2.70;;
27696;SDS011;15105;56.514;21.002;2022-08-14T04:05:49;4.40;;;2.15;;
27696;SDS011;15105;56.514;21.002;2022-08-14T04:08:16;7.97;;;2.53;;
27696;SDS011;15105;56.514;21.002;2022-08-14T04:10:57;13.02;;;2.40;;
27696;SDS011;15105;56.514;21.002;2022-08-14T04:13:27;9.15;;;2.58;;
27696;SDS011;15105;56.514;21.002;2022-08-14T04:15:59;7.40;;;2.10;;
27696;SDS011;15105;56.514;21.002;2022-08-14T04:18:39;4.93;;;2.10;;
27696;SDS011;15105;56.514;21.002;2022-08-14T04:23:44;6.75;;;2.42;;
27696;SDS011;15105;56.514;21.002;2022-08-14T04:26:23;8.00;;;2.35;;
27696;SDS011;15105;56.514;21.002;2022-08-14T04:29:08;5.65;;;2.45;;
27696;SDS011;15105;56.514;21.002;2022-08-14T04:31:41;11.50;;;2.25;;
27696;SDS011;15105;56.514;21.002;2022-08-14T04:34:29;8.73;;;2.65;;
27696;SDS011;15105;56.514;21.002;2022-08-14T04:36:56;8.07;;;2.10;;
27696;SDS011;15105;56.514;21.002;2022-08-14T04:39:50;8.40;;;2.25;;
27696;SDS011;15105;56.514;21.002;2022-08-14T04:42:37;13.50;;;2.83;;
27696;SDS011;15105;56.514;21.002;2022-08-14T04:45:24;5.55;;;2.25;;
27696;SDS011;15105;56.514;21.002;2022-08-14T04:48:04;7.38;;;2.50;;
27696;SDS011;15105;56.514;21.002;2022-08-14T04:50:59;8.20;;;2.50;;
27696;SDS011;15105;56.514;21.002;2022-08-14T04:53:28;10.65;;;2.35;;
27696;SDS011;15105;56.514;21.002;2022-08-14T04:56:01;7.30;;;2.17;;
27696;SDS011;15105;56.514;21.002;2022-08-14T04:58:36;7.30;;;2.20;;
27696;SDS011;15105;56.514;21.002;2022-08-14T05:01:05;9.30;;;2.65;;
27696;SDS011;15105;56.514;21.002;2022-08-14T05:03:44;10.70;;;2.33;;
27696;SDS011;15105;56.514;21.002;2022-08-14T05:20:08;7.93;;;2.15;;
27696;SDS011;15105;56.514;21.002;2022-08-14T05:23:03;7.88;;;2.47;;
27696;SDS011;15105;56.514;21.002;2022-08-14T05:25:30;9.63;;;2.70;;
27696;SDS011;15105;56.514;21.002;2022-08-14T05:28:13;12.93;;;2.92;;
27696;SDS011;15105;56.514;21.002;2022-08-14T05:30:46;12.70;;;2.65;;
27696;SDS011;15105;56.514;21.002;2022-08-14T05:33:14;12.10;;;2.58;;
27696;SDS011;15105;56.514;21.002;2022-08-14T05:35:44;9.80;;;2.97;;
27696;SDS011;15105;56.514;21.002;2022-08-14T05:38:12;16.35;;;2.80;;
27696;SDS011;15105;56.514;21.002;2022-08-14T05:40:56;10.65;;;2.55;;
27696;SDS011;15105;56.514;21.002;2022-08-14T05:43:23;13.40;;;3.00;;
27696;SDS011;15105;56.514;21.002;2022-08-14T05:46:06;9.18;;;2.40;;
27696;SDS011;15105;56.514;21.002;2022-08-14T05:48:54;11.30;;;3.20;;
27696;SDS011;15105;56.514;21.002;2022-08-14T05:51:23;13.20;;;3.08;;
27696;SDS011;15105;56.514;21.002;2022-08-14T05:53:52;7.95;;;3.95;;
27696;SDS011;15105;56.514;21.002;2022-08-14T05:56:38;6.50;;;2.72;;
27696;SDS011;15105;56.514;21.002;2022-08-14T05:59:05;5.90;;;2.85;;
27696;SDS011;15105;56.514;21.002;2022-08-14T06:01:36;11.35;;;2.90;;
27696;SDS011;15105;56.514;21.002;2022-08-14T06:04:03;15.70;;;2.67;;
27696;SDS011;15105;56.514;21.002;2022-08-14T06:06:30;6.55;;;2.80;;
27696;SDS011;15105;56.514;21.002;2022-08-14T06:09:03;7.80;;;2.65;;
27696;SDS011;15105;56.514;21.002;2022-08-14T06:11:51;10.32;;;3.42;;
27696;SDS011;15105;56.514;21.002;2022-08-14T06:14:19;7.65;;;2.90;;
27696;SDS011;15105;56.514;21.002;2022-08-14T06:16:49;10.15;;;2.70;;
27696;SDS011;15105;56.514;21.002;2022-08-14T06:19:18;11.18;;;3.20;;
27696;SDS011;15105;56.514;21.002;2022-08-14T06:21:48;8.40;;;2.72;;
27696;SDS011;15105;56.514;21.002;2022-08-14T06:24:24;8.10;;;2.50;;
27696;SDS011;15105;56.514;21.002;2022-08-14T06:26:52;7.53;;;2.60;;
27696;SDS011;15105;56.514;21.002;2022-08-14T06:29:29;9.35;;;2.60;;
27696;SDS011;15105;56.514;21.002;2022-08-14T06:31:58;3.75;;;2.60;;
27696;SDS011;15105;56.514;21.002;2022-08-14T06:34:46;7.88;;;2.80;;
27696;SDS011;15105;56.514;21.002;2022-08-14T06:37:46;9.25;;;3.10;;
27696;SDS011;15105;56.514;21.002;2022-08-14T06:40:15;7.53;;;3.10;;
27696;SDS011;15105;56.514;21.002;2022-08-14T06:42:57;11.27;;;2.70;;
27696;SDS011;15105;56.514;21.002;2022-08-14T06:48:01;9.70;;;2.50;;
27696;SDS011;15105;56.514;21.002;2022-08-14T06:50:38;9.95;;;2.90;;
27696;SDS011;15105;56.514;21.002;2022-08-14T07:34:59;11.10;;;2.50;;
27696;SDS011;15105;56.514;21.002;2022-08-14T07:37:27;10.93;;;2.60;;
27696;SDS011;15105;56.514;21.002;2022-08-14T07:39:54;14.85;;;2.78;;
27696;SDS011;15105;56.514;21.002;2022-08-14T07:42:21;7.60;;;2.25;;
27696;SDS011;15105;56.514;21.002;2022-08-14T07:44:49;9.82;;;2.50;;
27696;SDS011;15105;56.514;21.002;2022-08-14T07:47:16;9.40;;;2.42;;
27696;SDS011;15105;56.514;21.002;2022-08-14T07:49:51;13.88;;;2.60;;
27696;SDS011;15105;56.514;21.002;2022-08-14T07:52:34;10.80;;;2.75;;
27696;SDS011;15105;56.514;21.002;2022-08-14T07:55:03;11.88;;;2.53;;
27696;SDS011;15105;56.514;21.002;2022-08-14T07:57:33;11.85;;;2.55;;
27696;SDS011;15105;56.514;21.002;2022-08-14T08:00:03;8.07;;;1.88;;
27696;SDS011;15105;56.514;21.002;2022-08-14T08:02:55;12.63;;;2.65;;
27696;SDS011;15105;56.514;21.002;2022-08-14T08:05:25;10.07;;;2.50;;
27696;SDS011;15105;56.514;21.002;2022-08-14T08:07:53;15.27;;;2.40;;
27696;SDS011;15105;56.514;21.002;2022-08-14T08:10:22;13.93;;;2.78;;
27696;SDS011;15105;56.514;21.002;2022-08-14T08:13:20;8.68;;;2.13;;
27696;SDS011;15105;56.514;21.002;2022-08-14T08:15:50;12.23;;;2.58;;
27696;SDS011;15105;56.514;21.002;2022-08-14T08:18:26;17.30;;;2.58;;
27696;SDS011;15105;56.514;21.002;2022-08-14T08:20:56;7.50;;;2.08;;
27696;SDS011;15105;56.514;21.002;2022-08-14T08:23:26;22.23;;;2.55;;
27696;SDS011;15105;56.514;21.002;2022-08-14T08:26:08;12.02;;;2.50;;
27696;SDS011;15105;56.514;21.002;2022-08-14T08:28:36;10.10;;;2.10;;
27696;SDS011;15105;56.514;21.002;2022-08-14T08:31:08;11.15;;;2.10;;
27696;SDS011;15105;56.514;21.002;2022-08-14T08:33:37;10.85;;;2.55;;
27696;SDS011;15105;56.514;21.002;2022-08-14T08:36:10;6.75;;;2.17;;
27696;SDS011;15105;56.514;21.002;2022-08-14T08:38:44;9.93;;;2.15;;
27696;SDS011;15105;56.514;21.002;2022-08-14T08:41:43;6.07;;;1.98;;
27696;SDS011;15105;56.514;21.002;2022-08-14T08:44:18;14.82;;;1.95;;
27696;SDS011;15105;56.514;21.002;2022-08-14T08:46:58;15.10;;;2.40;;
27696;SDS011;15105;56.514;21.002;2022-08-14T08:49:34;19.00;;;2.97;;
27696;SDS011;15105;56.514;21.002;2022-08-14T08:52:14;6.25;;;1.95;;
27696;SDS011;15105;56.514;21.002;2022-08-14T08:54:56;11.90;;;1.92;;
27696;SDS011;15105;56.514;21.002;2022-08-14T08:57:24;10.52;;;1.88;;
27696;SDS011;15105;56.514;21.002;2022-08-14T08:59:51;11.35;;;2.22;;
27696;SDS011;15105;56.514;21.002;2022-08-14T09:02:24;4.30;;;1.73;;
27696;SDS011;15105;56.514;21.002;2022-08-14T09:04:59;13.15;;;1.80;;
27696;SDS011;15105;56.514;21.002;2022-08-14T09:07:27;8.50;;;2.00;;
27696;SDS011;15105;56.514;21.002;2022-08-14T09:09:56;8.50;;;2.00;;
27696;SDS011;15105;56.514;21.002;2022-08-14T09:12:29;8.68;;;1.90;;
27696;SDS011;15105;56.514;21.002;2022-08-14T09:15:03;8.32;;;2.20;;
27696;SDS011;15105;56.514;21.002;2022-08-14T09:17:37;6.88;;;1.88;;
27696;SDS011;15105;56.514;21.002;2022-08-14T09:20:07;7.65;;;1.83;;
27696;SDS011;15105;56.514;21.002;2022-08-14T09:22:38;10.75;;;2.10;;
27696;SDS011;15105;56.514;21.002;2022-08-14T09:25:13;8.57;;;1.85;;
27696;SDS011;15105;56.514;21.002;2022-08-14T09:27:44;7.28;;;2.15;;
27696;SDS011;15105;56.514;21.002;2022-08-14T09:30:13;10.57;;;2.00;;
27696;SDS011;15105;56.514;21.002;2022-08-14T09:38:37;8.98;;;1.80;;
27696;SDS011;15105;56.514;21.002;2022-08-14T09:44:27;9.93;;;2.08;;
27696;SDS011;15105;56.514;21.002;2022-08-14T09:47:15;7.35;;;2.15;;
27696;SDS011;15105;56.514;21.002;2022-08-14T09:49:42;6.43;;;1.90;;
27696;SDS011;15105;56.514;21.002;2022-08-14T09:52:18;7.85;;;2.10;;
27696;SDS011;15105;56.514;21.002;2022-08-14T09:54:58;13.77;;;2.05;;
27696;SDS011;15105;56.514;21.002;2022-08-14T09:57:27;6.32;;;2.03;;
27696;SDS011;15105;56.514;21.002;2022-08-14T09:59:57;7.22;;;1.50;;
27696;SDS011;15105;56.514;21.002;2022-08-14T10:02:28;9.55;;;1.75;;
27696;SDS011;15105;56.514;21.002;2022-08-14T10:05:06;5.90;;;1.67;;
27696;SDS011;15105;56.514;21.002;2022-08-14T10:10:37;11.13;;;1.65;;
27696;SDS011;15105;56.514;21.002;2022-08-14T10:13:19;4.50;;;1.75;;
27696;SDS011;15105;56.514;21.002;2022-08-14T10:15:49;5.30;;;2.00;;
27696;SDS011;15105;56.514;21.002;2022-08-14T10:18:17;13.15;;;2.45;;
27696;SDS011;15105;56.514;21.002;2022-08-14T10:23:24;8.90;;;2.00;;
27696;SDS011;15105;56.514;21.002;2022-08-14T10:26:04;9.93;;;2.28;;
27696;SDS011;15105;56.514;21.002;2022-08-14T10:28:39;8.98;;;2.47;;
27696;SDS011;15105;56.514;21.002;2022-08-14T10:31:29;9.68;;;2.15;;
27696;SDS011;15105;56.514;21.002;2022-08-14T10:34:21;7.68;;;1.77;;
27696;SDS011;15105;56.514;21.002;2022-08-14T10:37:02;5.95;;;2.05;;
27696;SDS011;15105;56.514;21.002;2022-08-14T10:40:00;4.55;;;1.80;;
27696;SDS011;15105;56.514;21.002;2022-08-14T10:42:47;6.82;;;2.20;;
27696;SDS011;15105;56.514;21.002;2022-08-14T10:45:15;7.60;;;2.10;;
27696;SDS011;15105;56.514;21.002;2022-08-14T10:47:48;7.68;;;1.98;;
27696;SDS011;15105;56.514;21.002;2022-08-14T10:50:39;11.45;;;1.90;;
27696;SDS011;15105;56.514;21.002;2022-08-14T10:53:12;7.43;;;2.05;;
27696;SDS011;15105;56.514;21.002;2022-08-14T10:55:40;9.10;;;2.10;;
27696;SDS011;15105;56.514;21.002;2022-08-14T10:58:11;8.60;;;2.15;;
27696;SDS011;15105;56.514;21.002;2022-08-14T11:00:40;5.00;;;2.08;;
27696;SDS011;15105;56.514;21.002;2022-08-14T11:06:12;7.20;;;1.98;;
27696;SDS011;15105;56.514;21.002;2022-08-14T11:11:43;4.25;;;1.60;;
27696;SDS011;15105;56.514;21.002;2022-08-14T11:14:14;7.22;;;2.33;;
27696;SDS011;15105;56.514;21.002;2022-08-14T11:16:48;7.80;;;1.60;;
27696;SDS011;15105;56.514;21.002;2022-08-14T11:19:19;7.93;;;1.77;;
27696;SDS011;15105;56.514;21.002;2022-08-14T11:21:51;5.88;;;1.77;;
27696;SDS011;15105;56.514;21.002;2022-08-14T11:24:21;5.70;;;1.83;;
27696;SDS011;15105;56.514;21.002;2022-08-14T11:27:14;2.92;;;1.63;;
27696;SDS011;15105;56.514;21.002;2022-08-14T11:29:44;9.05;;;1.83;;
27696;SDS011;15105;56.514;21.002;2022-08-14T11:32:26;8.77;;;1.95;;
27696;SDS011;15105;56.514;21.002;2022-08-14T11:34:55;8.63;;;1.80;;
27696;SDS011;15105;56.514;21.002;2022-08-14T11:37:23;5.20;;;1.90;;
27696;SDS011;15105;56.514;21.002;2022-08-14T11:40:13;6.80;;;1.70;;
27696;SDS011;15105;56.514;21.002;2022-08-14T11:43:00;6.00;;;1.80;;
27696;SDS011;15105;56.514;21.002;2022-08-14T11:45:31;7.10;;;1.42;;
27696;SDS011;15105;56.514;21.002;2022-08-14T11:48:21;6.78;;;2.03;;
27696;SDS011;15105;56.514;21.002;2022-08-14T11:51:14;6.97;;;1.70;;
27696;SDS011;15105;56.514;21.002;2022-08-14T11:53:43;6.57;;;1.80;;
27696;SDS011;15105;56.514;21.002;2022-08-14T11:56:33;5.65;;;1.60;;
27696;SDS011;15105;56.514;21.002;2022-08-14T11:59:14;2.42;;;1.80;;
27696;SDS011;15105;56.514;21.002;2022-08-14T12:01:43;7.15;;;2.10;;
27696;SDS011;15105;56.514;21.002;2022-08-14T12:04:15;8.07;;;1.90;;
27696;SDS011;15105;56.514;21.002;2022-08-14T12:06:58;6.88;;;1.80;;
27696;SDS011;15105;56.514;21.002;2022-08-14T12:09:36;5.47;;;2.10;;
27696;SDS011;15105;56.514;21.002;2022-08-14T12:15:01;7.18;;;1.90;;
27696;SDS011;15105;56.514;21.002;2022-08-14T12:17:50;6.18;;;1.60;;
27696;SDS011;15105;56.514;21.002;2022-08-14T12:20:27;6.05;;;1.83;;
27696;SDS011;15105;56.514;21.002;2022-08-14T12:23:03;7.30;;;1.90;;
27696;SDS011;15105;56.514;21.002;2022-08-14T12:25:32;4.22;;;1.85;;
27696;SDS011;15105;56.514;21.002;2022-08-14T12:28:03;5.95;;;1.52;;
27696;SDS011;15105;56.514;21.002;2022-08-14T12:30:57;6.20;;;2.05;;
27696;SDS011;15105;56.514;21.002;2022-08-14T12:33:25;3.03;;;1.80;;
27696;SDS011;15105;56.514;21.002;2022-08-14T12:36:03;4.77;;;1.80;;
27696;SDS011;15105;56.514;21.002;2022-08-14T12:38:50;4.00;;;2.00;;
27696;SDS011;15105;56.514;21.002;2022-08-14T12:41:20;7.40;;;2.40;;
27696;SDS011;15105;56.514;21.002;2022-08-14T12:43:54;6.72;;;2.55;;
27696;SDS011;15105;56.514;21.002;2022-08-14T12:46:35;4.82;;;2.30;;
27696;SDS011;15105;56.514;21.002;2022-08-14T12:49:11;4.57;;;2.17;;
27696;SDS011;15105;56.514;21.002;2022-08-14T12:51:41;3.75;;;1.98;;
27696;SDS011;15105;56.514;21.002;2022-08-14T12:57:12;7.85;;;2.58;;
27696;SDS011;15105;56.514;21.002;2022-08-14T12:59:45;7.05;;;2.92;;
27696;SDS011;15105;56.514;21.002;2022-08-14T13:02:20;7.65;;;2.42;;
27696;SDS011;15105;56.514;21.002;2022-08-14T13:04:53;8.70;;;3.13;;
27696;SDS011;15105;56.514;21.002;2022-08-14T13:07:22;10.68;;;2.80;;
27696;SDS011;15105;56.514;21.002;2022-08-14T13:09:58;5.38;;;2.50;;
27696;SDS011;15105;56.514;21.002;2022-08-14T13:12:45;9.90;;;2.40;;
27696;SDS011;15105;56.514;21.002;2022-08-14T13:15:34;6.75;;;2.35;;
27696;SDS011;15105;56.514;21.002;2022-08-14T13:18:01;14.18;;;2.38;;
27696;SDS011;15105;56.514;21.002;2022-08-14T13:20:30;9.82;;;2.30;;
27696;SDS011;15105;56.514;21.002;2022-08-14T13:22:58;6.10;;;2.20;;
27696;SDS011;15105;56.514;21.002;2022-08-14T13:25:28;5.22;;;2.30;;
27696;SDS011;15105;56.514;21.002;2022-08-14T13:27:56;7.07;;;2.33;;
27696;SDS011;15105;56.514;21.002;2022-08-14T13:30:25;12.98;;;2.28;;
27696;SDS011;15105;56.514;21.002;2022-08-14T13:32:53;10.05;;;2.10;;
27696;SDS011;15105;56.514;21.002;2022-08-14T13:35:23;8.82;;;2.30;;
27696;SDS011;15105;56.514;21.002;2022-08-14T13:37:51;10.85;;;2.78;;
27696;SDS011;15105;56.514;21.002;2022-08-14T13:40:19;6.32;;;2.17;;
27696;SDS011;15105;56.514;21.002;2022-08-14T13:42:52;10.82;;;2.50;;
27696;SDS011;15105;56.514;21.002;2022-08-14T13:45:22;7.90;;;2.28;;
27696;SDS011;15105;56.514;21.002;2022-08-14T13:48:12;7.18;;;2.38;;
27696;SDS011;15105;56.514;21.002;2022-08-14T13:50:59;8.27;;;2.13;;
27696;SDS011;15105;56.514;21.002;2022-08-14T13:53:28;10.40;;;1.98;;
27696;SDS011;15105;56.514;21.002;2022-08-14T13:55:59;8.23;;;1.95;;
27696;SDS011;15105;56.514;21.002;2022-08-14T13:58:28;7.03;;;2.10;;
27696;SDS011;15105;56.514;21.002;2022-08-14T14:01:01;13.13;;;2.17;;
27696;SDS011;15105;56.514;21.002;2022-08-14T14:03:29;7.20;;;2.20;;
27696;SDS011;15105;56.514;21.002;2022-08-14T14:06:01;9.20;;;1.98;;
27696;SDS011;15105;56.514;21.002;2022-08-14T14:08:28;13.07;;;2.20;;
27696;SDS011;15105;56.514;21.002;2022-08-14T14:11:12;6.60;;;2.05;;
27696;SDS011;15105;56.514;21.002;2022-08-14T14:13:42;11.80;;;1.92;;
27696;SDS011;15105;56.514;21.002;2022-08-14T14:16:12;9.68;;;2.25;;
27696;SDS011;15105;56.514;21.002;2022-08-14T14:18:53;24.98;;;2.75;;
27696;SDS011;15105;56.514;21.002;2022-08-14T14:21:29;8.82;;;2.20;;
27696;SDS011;15105;56.514;21.002;2022-08-14T14:23:58;12.70;;;2.33;;
27696;SDS011;15105;56.514;21.002;2022-08-14T14:26:26;9.02;;;2.30;;
27696;SDS011;15105;56.514;21.002;2022-08-14T14:28:58;12.60;;;2.35;;
27696;SDS011;15105;56.514;21.002;2022-08-14T14:31:28;13.55;;;2.38;;
27696;SDS011;15105;56.514;21.002;2022-08-14T14:34:01;5.90;;;2.10;;
27696;SDS011;15105;56.514;21.002;2022-08-14T14:36:49;20.33;;;2.85;;
27696;SDS011;15105;56.514;21.002;2022-08-14T14:39:21;8.73;;;2.40;;
27696;SDS011;15105;56.514;21.002;2022-08-14T14:41:55;13.77;;;2.88;;
27696;SDS011;15105;56.514;21.002;2022-08-14T14:44:47;17.15;;;2.58;;
27696;SDS011;15105;56.514;21.002;2022-08-14T14:47:21;19.13;;;2.63;;
27696;SDS011;15105;56.514;21.002;2022-08-14T14:49:50;12.50;;;2.72;;
27696;SDS011;15105;56.514;21.002;2022-08-14T14:52:21;14.27;;;2.40;;
27696;SDS011;15105;56.514;21.002;2022-08-14T14:54:54;11.13;;;2.50;;
27696;SDS011;15105;56.514;21.002;2022-08-14T14:57:24;9.32;;;2.30;;
27696;SDS011;15105;56.514;21.002;2022-08-14T15:00:01;11.68;;;2.40;;
27696;SDS011;15105;56.514;21.002;2022-08-14T15:02:46;15.52;;;2.60;;
27696;SDS011;15105;56.514;21.002;2022-08-14T15:05:16;10.40;;;2.60;;
27696;SDS011;15105;56.514;21.002;2022-08-14T15:07:45;10.13;;;2.50;;
27696;SDS011;15105;56.514;21.002;2022-08-14T15:10:16;11.45;;;2.38;;
27696;SDS011;15105;56.514;21.002;2022-08-14T15:12:57;13.15;;;2.72;;
27696;SDS011;15105;56.514;21.002;2022-08-14T15:15:29;23.83;;;3.30;;
27696;SDS011;15105;56.514;21.002;2022-08-14T15:17:58;12.02;;;2.72;;
27696;SDS011;15105;56.514;21.002;2022-08-14T15:20:26;31.70;;;3.35;;
27696;SDS011;15105;56.514;21.002;2022-08-14T15:22:57;12.23;;;2.75;;
27696;SDS011;15105;56.514;21.002;2022-08-14T15:25:47;13.15;;;3.08;;
27696;SDS011;15105;56.514;21.002;2022-08-14T15:28:18;13.73;;;3.85;;
27696;SDS011;15105;56.514;21.002;2022-08-14T15:30:47;13.07;;;4.15;;
27696;SDS011;15105;56.514;21.002;2022-08-14T15:33:23;15.88;;;4.15;;
27696;SDS011;15105;56.514;21.002;2022-08-14T15:36:28;12.20;;;4.20;;
27696;SDS011;15105;56.514;21.002;2022-08-14T15:38:56;9.02;;;3.50;;
27696;SDS011;15105;56.514;21.002;2022-08-14T15:41:24;15.45;;;3.90;;
27696;SDS011;15105;56.514;21.002;2022-08-14T15:44:06;9.93;;;3.70;;
27696;SDS011;15105;56.514;21.002;2022-08-14T15:46:50;11.38;;;4.47;;
27696;SDS011;15105;56.514;21.002;2022-08-14T15:49:18;13.27;;;3.58;;
27696;SDS011;15105;56.514;21.002;2022-08-14T15:51:46;9.80;;;3.75;;
27696;SDS011;15105;56.514;21.002;2022-08-14T15:54:16;20.45;;;4.30;;
27696;SDS011;15105;56.514;21.002;2022-08-14T15:57:08;12.55;;;3.95;;
27696;SDS011;15105;56.514;21.002;2022-08-14T15:59:36;25.83;;;3.95;;
27696;SDS011;15105;56.514;21.002;2022-08-14T16:02:23;10.95;;;3.90;;
27696;SDS011;15105;56.514;21.002;2022-08-14T16:04:53;10.07;;;4.45;;
27696;SDS011;15105;56.514;21.002;2022-08-14T16:07:21;12.95;;;4.13;;
27696;SDS011;15105;56.514;21.002;2022-08-14T16:09:52;19.15;;;4.20;;
27696;SDS011;15105;56.514;21.002;2022-08-14T16:12:40;10.27;;;4.05;;
27696;SDS011;15105;56.514;21.002;2022-08-14T16:15:13;7.68;;;3.50;;
27696;SDS011;15105;56.514;21.002;2022-08-14T16:17:42;14.30;;;3.88;;
27696;SDS011;15105;56.514;21.002;2022-08-14T16:20:11;12.82;;;4.03;;
27696;SDS011;15105;56.514;21.002;2022-08-14T16:23:00;9.10;;;4.18;;
27696;SDS011;15105;56.514;21.002;2022-08-14T16:25:49;12.15;;;4.18;;
27696;SDS011;15105;56.514;21.002;2022-08-14T16:28:17;9.38;;;4.15;;
27696;SDS011;15105;56.514;21.002;2022-08-14T16:30:53;12.85;;;4.18;;
27696;SDS011;15105;56.514;21.002;2022-08-14T16:33:21;15.13;;;4.00;;
27696;SDS011;15105;56.514;21.002;2022-08-14T16:36:08;5.95;;;3.83;;
27696;SDS011;15105;56.514;21.002;2022-08-14T16:38:56;9.68;;;4.38;;
27696;SDS011;15105;56.514;21.002;2022-08-14T16:41:25;9.00;;;3.55;;
27696;SDS011;15105;56.514;21.002;2022-08-14T16:44:02;16.70;;;4.63;;
27696;SDS011;15105;56.514;21.002;2022-08-14T16:46:46;10.15;;;4.10;;